Time;durP1;ratioP1;P1;durP2;ratioP2;P2;SDS_P1;SDS_P2;PMS_P1;PMS_P2;Temp;Humidity;BMP_temperature;BMP_pressure;BME280_temperature;BME280_humidity;BME280_pressure;Samples;Min_cycle;Max_cycle;Signal;HPM_P1;HPM_P2
2023/09/02 00:00:49;;;;;;;;;;;;;;;24.43;66.25;97393.28;601601;236;65513;-69
2023/09/02 00:03:16;;;;;;;;;;;;;;;24.42;66.17;97395.17;601637;236;65046;-69
2023/09/02 00:05:44;;;;;;;;;;;;;;;24.42;66.33;97400.55;601581;236;65351;-69
2023/09/02 00:08:11;;;;;;;;;;;;;;;24.43;66.26;97396.76;601598;236;65080;-69
2023/09/02 00:10:38;;;;;;;;;;;;;;;24.43;66.61;97395.97;601603;236;62736;-69
2023/09/02 00:13:06;;;;;;;;;;;;;;;24.42;67.38;97397.03;601573;236;64022;-69
2023/09/02 00:15:34;;;;;;;;;;;;;;;24.41;67.35;97390.86;601582;235;62721;-69
2023/09/02 00:18:01;;;;;;;;;;;;;;;24.41;66.43;97388.17;601612;236;64899;-69
2023/09/02 00:20:29;;;;;;;;;;;;;;;24.41;66.71;97390.86;601572;236;65466;-69
2023/09/02 00:22:56;;;;;;;;;;;;;;;24.42;66.26;97388.97;601572;236;65455;-69
2023/09/02 00:25:24;;;;;;;;;;;;;;;24.41;66.09;97393.55;601599;236;65044;-69
2023/09/02 00:27:52;;;;;;;;;;;;;;;24.41;66.35;97392.75;601574;236;65599;-69
2023/09/02 00:30:20;;;;;;;;;;;;;;;24.41;66.18;97398.92;601654;236;65306;-68
2023/09/02 00:32:48;;;;;;;;;;;;;;;24.41;66.25;97393.55;601556;236;62928;-69
2023/09/02 00:35:15;;;;;;;;;;;;;;;24.41;66.02;97398.92;601585;236;65613;-69
2023/09/02 00:37:46;;;;;;;;;;;;;;;24.41;66.31;97396.23;601594;236;66082;-66
2023/09/02 00:40:15;;;;;;;;;;;;;;;24.40;66.10;97402.70;601622;236;65223;-64
2023/09/02 00:42:44;;;;;;;;;;;;;;;24.40;66.85;97397.33;601644;236;62777;-64
2023/09/02 00:45:12;;;;;;;;;;;;;;;24.40;66.34;97394.64;601570;236;63293;-64
2023/09/02 00:47:39;;;;;;;;;;;;;;;24.40;66.08;97391.16;601557;236;65071;-64
2023/09/02 00:50:07;;;;;;;;;;;;;;;24.38;66.12;97394.91;601581;236;65740;-64
2023/09/02 00:52:36;;;;;;;;;;;;;;;24.40;66.16;97396.53;601607;236;63187;-64
2023/09/02 00:55:04;;;;;;;;;;;;;;;24.40;66.33;97393.85;601616;236;65061;-64
2023/09/02 00:57:31;;;;;;;;;;;;;;;24.38;66.39;97400.28;601611;236;65699;-64
2023/09/02 01:00:00;;;;;;;;;;;;;;;24.38;66.25;97394.91;601577;236;63007;-64
2023/09/02 01:02:28;;;;;;;;;;;;;;;24.39;66.29;97401.11;601553;236;66181;-64
2023/09/02 01:04:57;;;;;;;;;;;;;;;24.38;66.29;97400.28;601583;236;63004;-64
2023/09/02 01:07:26;;;;;;;;;;;;;;;24.40;66.23;97396.53;601644;236;65032;-64
2023/09/02 01:09:53;;;;;;;;;;;;;;;24.39;66.27;97401.11;601568;236;65124;-64
2023/09/02 01:12:21;;;;;;;;;;;;;;;24.40;66.14;97405.39;601525;236;65559;-64
2023/09/02 01:14:48;;;;;;;;;;;;;;;24.40;66.26;97404.59;601548;236;65255;-64
2023/09/02 01:17:16;;;;;;;;;;;;;;;24.39;66.30;97395.74;601581;236;62681;-64
2023/09/02 01:19:44;;;;;;;;;;;;;;;24.38;66.17;97391.44;601620;236;63341;-67
2023/09/02 01:22:22;;;;;;;;;;;;;;;24.38;66.18;97391.44;601599;236;65398;-67
2023/09/02 01:24:54;;;;;;;;;;;;;;;24.38;66.12;97397.60;601040;236;62760;-68
2023/09/02 01:27:30;;;;;;;;;;;;;;;24.38;66.19;97399.49;601589;236;62984;-68
2023/09/02 01:30:02;;;;;;;;;;;;;;;24.38;66.17;97391.44;601460;236;62647;-68
2023/09/02 01:32:31;;;;;;;;;;;;;;;24.38;66.19;97396.80;601561;236;62670;-65
2023/09/02 01:35:02;;;;;;;;;;;;;;;24.38;66.09;97399.49;601539;236;63274;-65
2023/09/02 01:37:29;;;;;;;;;;;;;;;24.36;66.03;97402.48;601541;236;65662;-65
2023/09/02 01:39:57;;;;;;;;;;;;;;;24.37;66.15;97403.27;601579;236;65104;-68
2023/09/02 01:42:25;;;;;;;;;;;;;;;24.37;66.45;97396.02;601583;236;63145;-68
2023/09/02 01:44:53;;;;;;;;;;;;;;;24.36;66.05;97396.28;601576;236;63936;-65
2023/09/02 01:47:21;;;;;;;;;;;;;;;24.37;66.34;97404.07;601624;236;62795;-65
2023/09/02 01:49:48;;;;;;;;;;;;;;;24.37;66.61;97411.33;601562;236;63186;-65
2023/09/02 01:52:16;;;;;;;;;;;;;;;24.36;66.19;97418.59;601574;236;65294;-65
2023/09/02 01:54:44;;;;;;;;;;;;;;;24.37;66.17;97411.33;601612;236;66056;-65
2023/09/02 01:57:12;;;;;;;;;;;;;;;24.36;66.22;97412.40;601558;236;62945;-68
2023/09/02 01:59:39;;;;;;;;;;;;;;;24.36;66.05;97407.85;601626;236;65317;-68
2023/09/02 02:02:07;;;;;;;;;;;;;;;24.36;66.22;97401.66;601545;236;65170;-68
2023/09/02 02:04:37;;;;;;;;;;;;;;;24.35;66.11;97411.60;601561;236;63080;-68
2023/09/02 02:07:06;;;;;;;;;;;;;;;24.35;66.06;97411.60;601577;236;65333;-68
2023/09/02 02:09:35;;;;;;;;;;;;;;;24.37;66.06;97408.65;601578;236;62680;-68
2023/09/02 02:12:04;;;;;;;;;;;;;;;24.37;66.21;97422.08;601332;236;65597;-67
2023/09/02 02:14:32;;;;;;;;;;;;;;;24.36;66.24;97423.97;601598;236;65031;-67
2023/09/02 02:17:02;;;;;;;;;;;;;;;24.36;66.25;97421.28;601515;236;62768;-67
2023/09/02 02:19:31;;;;;;;;;;;;;;;24.36;66.28;97417.77;601605;236;63349;-69
2023/09/02 02:21:59;;;;;;;;;;;;;;;24.35;66.14;97422.34;601554;236;65885;-69
2023/09/02 02:24:26;;;;;;;;;;;;;;;24.35;66.28;97422.34;601581;236;65144;-69
2023/09/02 02:26:54;;;;;;;;;;;;;;;24.34;66.17;97422.64;601610;236;66573;-69
2023/09/02 02:29:21;;;;;;;;;;;;;;;24.35;66.16;97426.92;601546;236;65004;-69
2023/09/02 02:31:49;;;;;;;;;;;;;;;24.34;66.29;97423.44;601559;236;65117;-69
2023/09/02 02:34:17;;;;;;;;;;;;;;;24.35;66.11;97418.86;601573;236;63123;-69
2023/09/02 02:36:44;;;;;;;;;;;;;;;24.35;66.44;97416.18;601556;236;65324;-69
2023/09/02 02:39:12;;;;;;;;;;;;;;;24.35;66.14;97408.92;601611;236;65014;-69
2023/09/02 02:41:39;;;;;;;;;;;;;;;24.34;65.91;97409.22;601558;236;65567;-69
2023/09/02 02:44:07;;;;;;;;;;;;;;;24.35;65.78;97405.44;601615;236;62370;-69
2023/09/02 02:46:35;;;;;;;;;;;;;;;24.34;66.09;97403.84;601579;236;64937;-69
2023/09/02 02:49:02;;;;;;;;;;;;;;;24.34;65.80;97404.64;601599;236;65360;-69
2023/09/02 02:51:30;;;;;;;;;;;;;;;24.34;66.05;97403.84;601614;236;62980;-69
2023/09/02 02:53:57;;;;;;;;;;;;;;;24.33;66.06;97399.53;601645;236;65135;-69
2023/09/02 02:56:25;;;;;;;;;;;;;;;24.33;66.16;97394.96;601549;236;66191;-69
2023/09/02 02:58:54;;;;;;;;;;;;;;;24.33;66.18;97400.33;601597;236;65071;-69
2023/09/02 03:01:22;;;;;;;;;;;;;;;24.34;66.15;97395.78;601581;236;66147;-69
2023/09/02 03:03:50;;;;;;;;;;;;;;;24.33;66.10;97402.22;601582;236;63058;-69
2023/09/02 03:06:21;;;;;;;;;;;;;;;24.33;66.06;97407.59;601610;236;65303;-69
2023/09/02 03:08:48;;;;;;;;;;;;;;;24.33;66.00;97413.77;601560;236;64913;-67
2023/09/02 03:11:16;;;;;;;;;;;;;;;24.33;65.86;97411.08;601556;236;62963;-67
2023/09/02 03:13:44;;;;;;;;;;;;;;;24.33;66.07;97408.39;601566;236;65226;-67
2023/09/02 03:16:13;;;;;;;;;;;;;;;24.33;66.11;97412.97;601397;236;42518;-68
2023/09/02 03:18:41;;;;;;;;;;;;;;;24.32;66.00;97416.75;601610;236;63018;-68
2023/09/02 03:21:10;;;;;;;;;;;;;;;24.32;66.00;97416.75;601554;236;65169;-68
2023/09/02 03:23:37;;;;;;;;;;;;;;;24.32;66.00;97409.48;601567;236;63055;-68
2023/09/02 03:26:08;;;;;;;;;;;;;;;24.32;66.33;97408.69;601597;236;66136;-68
2023/09/02 03:28:36;;;;;;;;;;;;;;;24.32;66.27;97414.86;601583;236;65302;-67
2023/09/02 03:31:11;;;;;;;;;;;;;;;24.31;66.01;97409.78;601636;236;62498;-68
2023/09/02 03:33:40;;;;;;;;;;;;;;;24.32;66.10;97419.44;601694;236;42096;-68
2023/09/02 03:36:10;;;;;;;;;;;;;;;24.32;66.02;97416.75;601566;236;65883;-68
2023/09/02 03:38:38;;;;;;;;;;;;;;;24.31;65.96;97423.22;601445;236;65706;-68
2023/09/02 03:41:07;;;;;;;;;;;;;;;24.31;65.84;97425.91;601584;236;65427;-68
2023/09/02 03:43:35;;;;;;;;;;;;;;;24.32;65.99;97427.49;601545;236;62626;-68
2023/09/02 03:46:02;;;;;;;;;;;;;;;24.30;65.97;97425.08;601646;236;65108;-68
2023/09/02 03:48:30;;;;;;;;;;;;;;;24.30;66.04;97427.77;601565;236;65455;-68
2023/09/02 03:51:05;;;;;;;;;;;;;;;24.31;66.04;97425.91;601601;236;63143;-68
2023/09/02 03:53:31;;;;;;;;;;;;;;;24.31;66.00;97431.27;601475;236;66547;-68
2023/09/02 03:55:59;;;;;;;;;;;;;;;24.31;66.14;97431.27;601570;236;66179;-68
2023/09/02 03:58:29;;;;;;;;;;;;;;;24.31;66.23;97429.38;601679;236;64761;-68
2023/09/02 04:00:57;;;;;;;;;;;;;;;24.30;66.26;97429.66;601598;236;65194;-68
2023/09/02 04:03:26;;;;;;;;;;;;;;;24.30;66.53;97435.02;601567;236;63261;-68
2023/09/02 04:05:54;;;;;;;;;;;;;;;24.31;66.26;97431.27;601572;236;66395;-68
2023/09/02 04:08:23;;;;;;;;;;;;;;;24.30;65.84;97443.08;601582;236;62976;-68
2023/09/02 04:10:52;;;;;;;;;;;;;;;24.29;65.79;97436.91;601578;236;65739;-68
2023/09/02 04:13:26;;;;;;;;;;;;;;;24.29;66.04;97439.59;601472;236;62868;-68
2023/09/02 04:15:56;;;;;;;;;;;;;;;24.30;66.47;97437.70;601552;236;65168;-68
2023/09/02 04:18:25;;;;;;;;;;;;;;;24.29;66.42;97438.80;601578;236;64213;-68
2023/09/02 04:20:54;;;;;;;;;;;;;;;24.29;66.21;97433.44;601608;236;65095;-68
2023/09/02 04:23:23;;;;;;;;;;;;;;;24.28;65.88;97432.64;601580;236;63306;-68
2023/09/02 04:25:53;;;;;;;;;;;;;;;24.29;66.11;97436.12;601699;236;41673;-68
2023/09/02 04:28:22;;;;;;;;;;;;;;;24.28;66.10;97434.50;601637;236;65215;-68
2023/09/02 04:30:51;;;;;;;;;;;;;;;24.29;66.11;97436.12;601539;236;62514;-68
2023/09/02 04:33:21;;;;;;;;;;;;;;;24.29;65.81;97441.48;601564;236;63502;-68
2023/09/02 04:35:49;;;;;;;;;;;;;;;24.28;66.25;97443.38;601611;236;65338;-68
2023/09/02 04:38:17;;;;;;;;;;;;;;;24.28;65.83;97442.55;601329;236;62806;-68
2023/09/02 04:40:46;;;;;;;;;;;;;;;24.28;65.74;97445.23;601572;236;44122;-68
2023/09/02 04:43:15;;;;;;;;;;;;;;;24.28;65.77;97448.75;601599;236;65288;-68
2023/09/02 04:45:44;;;;;;;;;;;;;;;24.28;65.81;97448.75;601580;236;65038;-68
2023/09/02 04:48:14;;;;;;;;;;;;;;;24.28;65.89;97450.61;601671;236;39400;-68
2023/09/02 04:50:41;;;;;;;;;;;;;;;24.28;65.92;97455.98;601563;236;65255;-68
2023/09/02 04:53:10;;;;;;;;;;;;;;;24.28;65.86;97447.92;601588;236;65643;-68
2023/09/02 04:55:40;;;;;;;;;;;;;;;24.29;66.05;97449.55;601536;236;44430;-68
2023/09/02 04:58:09;;;;;;;;;;;;;;;24.28;65.73;97453.30;601572;236;42309;-68
2023/09/02 05:00:38;;;;;;;;;;;;;;;24.27;65.70;97454.39;601565;236;65648;-68
2023/09/02 05:03:08;;;;;;;;;;;;;;;24.28;65.74;97445.23;601545;236;62898;-68
2023/09/02 05:05:36;;;;;;;;;;;;;;;24.28;66.02;97450.61;601529;236;62938;-68
2023/09/02 05:08:05;;;;;;;;;;;;;;;24.26;66.30;97442.85;601622;236;43637;-68
2023/09/02 05:10:34;;;;;;;;;;;;;;;24.27;66.04;97449.02;601551;236;65750;-68
2023/09/02 05:13:02;;;;;;;;;;;;;;;24.27;66.55;97449.81;601556;236;65210;-68
2023/09/02 05:15:31;;;;;;;;;;;;;;;24.27;65.97;97447.13;601533;236;65665;-68
2023/09/02 05:17:59;;;;;;;;;;;;;;;24.26;66.35;97444.74;601548;236;64267;-68
2023/09/02 05:20:28;;;;;;;;;;;;;;;24.26;66.67;97450.91;601628;236;66246;-68
2023/09/02 05:22:56;;;;;;;;;;;;;;;24.26;66.45;97448.22;601570;236;62831;-68
2023/09/02 05:25:25;;;;;;;;;;;;;;;24.26;66.29;97450.91;601578;236;66468;-68
2023/09/02 05:27:53;;;;;;;;;;;;;;;24.25;66.00;97449.28;601589;236;63792;-68
2023/09/02 05:30:21;;;;;;;;;;;;;;;24.25;65.80;97445.81;601578;236;65042;-68
2023/09/02 05:32:48;;;;;;;;;;;;;;;24.27;66.00;97451.70;601599;236;66323;-68
2023/09/02 05:35:16;;;;;;;;;;;;;;;24.26;66.09;97453.59;601652;236;65445;-68
2023/09/02 05:37:43;;;;;;;;;;;;;;;24.25;65.90;97443.92;601570;236;64885;-68
2023/09/02 05:40:11;;;;;;;;;;;;;;;24.26;65.97;97444.74;601548;236;63918;-68
2023/09/02 05:42:40;;;;;;;;;;;;;;;24.25;65.97;97443.92;601579;236;65227;-68
2023/09/02 05:45:08;;;;;;;;;;;;;;;24.26;66.17;97447.43;601483;236;63599;-68
2023/09/02 05:47:35;;;;;;;;;;;;;;;24.26;66.43;97450.91;601607;236;65758;-68
2023/09/02 05:50:03;;;;;;;;;;;;;;;24.25;66.36;97448.49;601568;236;65041;-68
2023/09/02 05:52:30;;;;;;;;;;;;;;;24.25;66.39;97449.28;601484;236;66259;-68
2023/09/02 05:54:58;;;;;;;;;;;;;;;24.26;66.77;97444.74;601555;236;65497;-68
2023/09/02 05:57:25;;;;;;;;;;;;;;;24.26;66.60;97447.43;601546;236;62975;-68
2023/09/02 05:59:53;;;;;;;;;;;;;;;24.25;66.48;97451.97;601574;236;65168;-68
2023/09/02 06:02:21;;;;;;;;;;;;;;;24.24;66.17;97450.38;601588;236;65612;-68
2023/09/02 06:04:48;;;;;;;;;;;;;;;24.25;66.24;97451.17;601552;236;62846;-65
2023/09/02 06:07:16;;;;;;;;;;;;;;;24.25;66.09;97451.97;601551;236;63023;-65
2023/09/02 06:09:43;;;;;;;;;;;;;;;24.24;66.13;97457.64;601521;236;63110;-64
2023/09/02 06:12:11;;;;;;;;;;;;;;;24.25;66.19;97459.23;601588;236;66163;-65
2023/09/02 06:14:38;;;;;;;;;;;;;;;24.24;65.99;97469.19;601519;236;64876;-65
2023/09/02 06:17:06;;;;;;;;;;;;;;;24.25;66.06;97461.92;601591;236;65539;-64
2023/09/02 06:19:33;;;;;;;;;;;;;;;24.25;64.36;97461.92;601559;236;65053;-65
2023/09/02 06:22:01;;;;;;;;;;;;;;;24.21;62.56;97461.69;601578;236;65063;-65
2023/09/02 06:24:28;;;;;;;;;;;;;;;24.24;63.56;97463.02;601624;236;65535;-65
2023/09/02 06:27:03;;;;;;;;;;;;;;;24.24;64.39;97463.02;601609;236;64897;-64
2023/09/02 06:29:25;;;;;;;;;;;;;;;24.25;64.44;97456.55;601341;236;64918;-65
2023/09/02 06:31:53;;;;;;;;;;;;;;;24.26;64.56;97452.80;601579;236;63240;-65
2023/09/02 06:34:22;;;;;;;;;;;;;;;24.27;66.17;97454.39;601526;236;64171;-65
2023/09/02 06:36:50;;;;;;;;;;;;;;;24.26;66.77;97453.59;601552;236;63062;-65
2023/09/02 06:39:17;;;;;;;;;;;;;;;24.27;66.67;97451.70;601575;236;63015;-65
2023/09/02 06:41:45;;;;;;;;;;;;;;;24.26;66.47;97456.28;601576;236;63239;-65
2023/09/02 06:44:13;;;;;;;;;;;;;;;24.27;66.50;97452.50;601558;236;65644;-65
2023/09/02 06:46:41;;;;;;;;;;;;;;;24.27;66.34;97454.39;601577;236;65574;-65
2023/09/02 06:49:08;;;;;;;;;;;;;;;24.27;66.31;97457.08;601582;236;62744;-65
2023/09/02 06:51:36;;;;;;;;;;;;;;;24.28;66.30;97455.98;601656;236;62720;-68
2023/09/02 06:54:03;;;;;;;;;;;;;;;24.27;66.18;97457.08;601580;236;62482;-68
2023/09/02 06:56:31;;;;;;;;;;;;;;;24.28;65.96;97455.98;598397;236;62751;-65
2023/09/02 06:58:58;;;;;;;;;;;;;;;24.29;66.33;97454.92;598616;236;64858;-65
2023/09/02 07:01:26;;;;;;;;;;;;;;;24.28;65.91;97454.13;599305;236;62975;-65
2023/09/02 07:03:55;;;;;;;;;;;;;;;24.28;65.84;97448.75;601588;236;64815;-65
2023/09/02 07:06:23;;;;;;;;;;;;;;;24.29;65.91;97454.92;601433;236;62861;-65
2023/09/02 07:08:50;;;;;;;;;;;;;;;24.29;65.73;97457.61;601570;236;62864;-65
2023/09/02 07:11:18;;;;;;;;;;;;;;;24.29;65.90;97460.29;597977;236;62956;-65
2023/09/02 07:13:48;;;;;;;;;;;;;;;24.30;65.86;97459.20;595019;238;62662;-65
2023/09/02 07:16:16;;;;;;;;;;;;;;;24.30;65.97;97461.88;594935;238;63059;-65
2023/09/02 07:18:43;;;;;;;;;;;;;;;24.30;65.99;97462.68;594944;238;65434;-65
2023/09/02 07:21:11;;;;;;;;;;;;;;;24.29;65.73;97458.41;594952;238;62618;-66
2023/09/02 07:23:39;;;;;;;;;;;;;;;24.30;65.84;97461.88;594966;238;65579;-65
2023/09/02 07:26:06;;;;;;;;;;;;;;;24.30;66.02;97462.68;595020;238;65215;-65
2023/09/02 07:28:36;;;;;;;;;;;;;;;24.30;65.93;97464.56;594961;238;64926;-65
2023/09/02 07:31:05;;;;;;;;;;;;;;;24.31;65.84;97460.81;594954;238;65585;-65
2023/09/02 07:33:32;;;;;;;;;;;;;;;24.30;65.91;97462.68;594933;238;65057;-65
2023/09/02 07:36:01;;;;;;;;;;;;;;;24.31;66.02;97458.13;594966;238;65539;-65
2023/09/02 07:38:29;;;;;;;;;;;;;;;24.31;66.00;97452.77;594756;238;65591;-65
2023/09/02 07:40:56;;;;;;;;;;;;;;;24.31;66.49;97455.45;595030;238;63546;-65
2023/09/02 07:43:24;;;;;;;;;;;;;;;24.32;66.90;97446.30;594945;238;63084;-65
2023/09/02 07:45:51;;;;;;;;;;;;;;;24.32;67.64;97448.98;594910;236;63263;-65
2023/09/02 07:48:19;;;;;;;;;;;;;;;24.31;67.93;97450.08;594755;236;63400;-65
2023/09/02 07:50:46;;;;;;;;;;;;;;;24.31;67.53;97442.02;594950;238;63552;-65
2023/09/02 07:53:14;;;;;;;;;;;;;;;24.31;67.57;97437.44;594987;238;63523;-65
2023/09/02 07:55:41;;;;;;;;;;;;;;;24.31;68.31;97442.81;594952;238;63229;-65
2023/09/02 07:58:09;;;;;;;;;;;;;;;24.31;67.86;97450.08;594961;238;62685;-65
2023/09/02 08:00:37;;;;;;;;;;;;;;;24.31;67.70;97447.39;594917;238;65600;-68
2023/09/02 08:03:05;;;;;;;;;;;;;;;24.31;67.66;97442.02;594978;238;65186;-68
2023/09/02 08:05:32;;;;;;;;;;;;;;;24.30;66.90;97446.56;595034;238;65204;-65
2023/09/02 08:08:00;;;;;;;;;;;;;;;24.30;66.00;97449.25;594984;238;65371;-65
2023/09/02 08:10:27;;;;;;;;;;;;;;;24.31;66.55;97447.39;595032;238;62839;-65
2023/09/02 08:12:55;;;;;;;;;;;;;;;24.32;66.67;97451.66;595020;238;63608;-65
2023/09/02 08:15:24;;;;;;;;;;;;;;;24.32;67.18;97440.92;594958;238;65638;-65
2023/09/02 08:17:52;;;;;;;;;;;;;;;24.33;66.94;97445.20;595068;238;65070;-65
2023/09/02 08:20:20;;;;;;;;;;;;;;;24.33;67.93;97445.20;595027;238;65062;-65
2023/09/02 08:22:47;;;;;;;;;;;;;;;24.32;66.78;97448.98;595063;238;65556;-65
2023/09/02 08:25:15;;;;;;;;;;;;;;;24.32;66.58;97451.66;595054;238;65084;-65
2023/09/02 08:27:46;;;;;;;;;;;;;;;24.32;66.66;97440.92;595000;238;64888;-65
2023/09/02 08:30:14;;;;;;;;;;;;;;;24.33;66.57;97448.68;595053;238;63122;-65
2023/09/02 08:32:42;;;;;;;;;;;;;;;24.32;66.36;97446.30;595052;238;65225;-65
2023/09/02 08:35:12;;;;;;;;;;;;;;;24.32;66.51;97449.77;595039;238;65075;-65
2023/09/02 08:37:39;;;;;;;;;;;;;;;24.33;66.69;97450.58;595015;238;65688;-65
2023/09/02 08:40:07;;;;;;;;;;;;;;;24.32;66.49;97443.61;595014;238;65062;-65
2023/09/02 08:42:40;;;;;;;;;;;;;;;24.31;66.38;97442.81;595044;238;65101;-64
2023/09/02 08:45:06;;;;;;;;;;;;;;;24.33;66.50;97439.83;594912;238;65534;-64
2023/09/02 08:47:34;;;;;;;;;;;;;;;24.33;66.66;97450.58;595036;238;65127;-65
2023/09/02 08:50:03;;;;;;;;;;;;;;;24.33;66.49;97450.58;595057;238;65806;-65
2023/09/02 08:52:31;;;;;;;;;;;;;;;24.34;66.69;97457.56;595024;238;63354;-64
2023/09/02 08:54:59;;;;;;;;;;;;;;;24.33;66.53;97455.94;595064;238;62694;-64
2023/09/02 08:57:27;;;;;;;;;;;;;;;24.33;66.63;97451.37;595027;238;65084;-64
2023/09/02 08:59:55;;;;;;;;;;;;;;;24.34;66.67;97449.51;595012;238;63099;-64
2023/09/02 09:02:22;;;;;;;;;;;;;;;24.34;67.01;97446.82;595021;238;66437;-65
2023/09/02 09:04:52;;;;;;;;;;;;;;;24.34;66.88;97452.98;595049;238;62839;-64
2023/09/02 09:07:20;;;;;;;;;;;;;;;24.33;66.72;97446.00;595004;238;65730;-64
2023/09/02 09:09:48;;;;;;;;;;;;;;;24.34;66.63;97446.82;595027;238;63001;-64
2023/09/02 09:12:17;;;;;;;;;;;;;;;24.33;66.57;97446.00;595046;238;65048;-64
2023/09/02 09:14:46;;;;;;;;;;;;;;;24.34;66.83;97441.45;594984;238;63123;-64
2023/09/02 09:17:14;;;;;;;;;;;;;;;24.34;66.95;97444.13;595062;238;63004;-65
2023/09/02 09:19:42;;;;;;;;;;;;;;;24.35;66.57;97434.98;595039;238;65118;-65
2023/09/02 09:22:09;;;;;;;;;;;;;;;24.34;66.72;97430.70;595040;238;65050;-65
2023/09/02 09:24:37;;;;;;;;;;;;;;;24.34;66.68;97433.39;595028;238;65066;-64
2023/09/02 09:27:06;;;;;;;;;;;;;;;24.33;66.92;97427.19;594980;238;64906;-65
2023/09/02 09:29:43;;;;;;;;;;;;;;;24.35;66.67;97432.30;595042;238;63617;-65
2023/09/02 09:32:12;;;;;;;;;;;;;;;24.33;66.78;97426.40;595052;238;65291;-64
2023/09/02 09:34:42;;;;;;;;;;;;;;;24.34;66.96;97426.13;595033;238;62963;-64
2023/09/02 09:37:10;;;;;;;;;;;;;;;24.35;67.48;97429.61;595051;238;63088;-64
2023/09/02 09:39:40;;;;;;;;;;;;;;;24.34;67.69;97418.07;595044;238;62953;-64
2023/09/02 09:42:08;;;;;;;;;;;;;;;24.34;68.23;97415.38;595023;238;64998;-64
2023/09/02 09:44:37;;;;;;;;;;;;;;;24.34;68.46;97415.38;595063;238;63307;-65
2023/09/02 09:47:06;;;;;;;;;;;;;;;24.34;67.97;97419.96;594426;238;65181;-65
2023/09/02 09:49:34;;;;;;;;;;;;;;;24.33;68.17;97418.34;595022;238;63838;-68
2023/09/02 09:52:03;;;;;;;;;;;;;;;24.33;67.92;97421.02;595024;238;63366;-68
2023/09/02 09:54:36;;;;;;;;;;;;;;;24.33;67.30;97415.66;595062;238;65032;-68
2023/09/02 09:57:05;;;;;;;;;;;;;;;24.33;67.38;97407.59;594907;238;67848;-68
2023/09/02 09:59:34;;;;;;;;;;;;;;;24.33;67.33;97410.28;595040;238;64164;-68
2023/09/02 10:02:05;;;;;;;;;;;;;;;24.34;67.65;97412.70;595021;238;65257;-68
2023/09/02 10:04:33;;;;;;;;;;;;;;;24.34;67.68;97406.53;594979;238;65091;-68
2023/09/02 10:07:01;;;;;;;;;;;;;;;24.33;67.62;97397.64;595050;238;65459;-68
2023/09/02 10:09:42;;;;;;;;;;;;;;;24.34;67.76;97401.16;595058;238;62855;-68
2023/09/02 10:12:11;;;;;;;;;;;;;;;24.33;67.83;97402.22;594916;238;64958;-68
2023/09/02 10:14:43;;;;;;;;;;;;;;;24.34;67.82;97401.16;595035;238;65732;-68
2023/09/02 10:17:11;;;;;;;;;;;;;;;24.34;67.80;97403.84;594858;238;65338;-68
2023/09/02 10:19:40;;;;;;;;;;;;;;;24.34;67.78;97396.58;595050;238;62763;-68
2023/09/02 10:22:08;;;;;;;;;;;;;;;24.33;67.63;97386.91;594980;238;65465;-68
2023/09/02 10:24:37;;;;;;;;;;;;;;;24.34;68.16;97393.89;594950;238;65423;-68
2023/09/02 10:27:06;;;;;;;;;;;;;;;24.35;68.66;97394.69;594928;238;62840;-68
2023/09/02 10:29:34;;;;;;;;;;;;;;;24.34;68.37;97401.16;595011;238;63093;-68
2023/09/02 10:32:03;;;;;;;;;;;;;;;24.34;68.17;97395.78;595014;238;65336;-68
2023/09/02 10:34:38;;;;;;;;;;;;;;;24.34;68.21;97388.52;594901;238;65005;-68
2023/09/02 10:37:07;;;;;;;;;;;;;;;24.34;67.82;97393.89;595022;238;65009;-68
2023/09/02 10:39:43;;;;;;;;;;;;;;;24.33;67.27;97384.22;595037;238;65213;-68
2023/09/02 10:42:11;;;;;;;;;;;;;;;24.34;67.07;97383.16;594993;238;65134;-68
2023/09/02 10:44:39;;;;;;;;;;;;;;;24.34;66.97;97393.89;594994;238;65946;-68
2023/09/02 10:47:07;;;;;;;;;;;;;;;24.34;66.85;97387.73;595005;238;65131;-68
2023/09/02 10:49:35;;;;;;;;;;;;;;;24.34;66.93;97387.73;595031;238;65000;-68
2023/09/02 10:52:02;;;;;;;;;;;;;;;24.35;66.81;97389.32;595021;238;64166;-68
2023/09/02 10:54:32;;;;;;;;;;;;;;;24.35;66.81;97375.89;595060;238;63963;-68
2023/09/02 10:57:00;;;;;;;;;;;;;;;24.35;66.81;97381.27;592954;238;64889;-68
2023/09/02 10:59:34;;;;;;;;;;;;;;;24.35;66.77;97384.73;594533;238;65209;-68
2023/09/02 11:01:58;;;;;;;;;;;;;;;24.35;67.39;97384.73;595078;236;63598;-67
2023/09/02 11:04:47;;;;;;;;;;;;;;;24.36;67.08;97385.54;597997;236;64942;-68
2023/09/02 11:07:24;;;;;;;;;;;;;;;24.36;66.94;97380.16;600656;236;66491;-68
2023/09/02 11:09:55;;;;;;;;;;;;;;;24.35;67.27;97367.83;601120;236;64581;-67
2023/09/02 11:12:23;;;;;;;;;;;;;;;24.36;67.03;97380.16;601111;236;62709;-68
2023/09/02 11:15:07;;;;;;;;;;;;;;;24.35;67.07;97382.05;601095;236;62935;-68
2023/09/02 11:17:35;;;;;;;;;;;;;;;24.34;67.27;97376.98;601091;236;62873;-68
2023/09/02 11:20:04;;;;;;;;;;;;;;;24.34;66.99;97366.23;601134;236;62919;-68
2023/09/02 11:22:50;;;;;;;;;;;;;;;24.35;67.78;97365.14;601593;236;65021;-68
2023/09/02 11:25:39;;;;;;;;;;;;;;;24.35;67.94;97368.62;601632;236;65035;-69
2023/09/02 11:28:08;;;;;;;;;;;;;;;24.35;67.94;97375.89;601620;236;65280;-69
2023/09/02 11:30:37;;;;;;;;;;;;;;;24.34;67.57;97375.09;601614;236;63593;-69
2023/09/02 11:33:05;;;;;;;;;;;;;;;24.34;67.81;97367.03;601557;236;65786;-69
2023/09/02 11:35:36;;;;;;;;;;;;;;;24.35;67.78;97373.20;601625;236;63065;-69
2023/09/02 11:38:05;;;;;;;;;;;;;;;24.34;67.85;97371.61;601595;236;65309;-67
2023/09/02 11:40:33;;;;;;;;;;;;;;;24.35;67.95;97362.45;601101;236;62943;-67
2023/09/02 11:43:01;;;;;;;;;;;;;;;24.34;67.66;97361.66;601614;236;62736;-67
2023/09/02 11:45:30;;;;;;;;;;;;;;;24.34;67.20;97360.87;601636;236;65681;-67
2023/09/02 11:47:57;;;;;;;;;;;;;;;24.34;67.04;97355.50;601622;236;63177;-67
2023/09/02 11:50:26;;;;;;;;;;;;;;;24.34;66.93;97345.55;601664;236;63711;-67
2023/09/02 11:52:55;;;;;;;;;;;;;;;24.35;66.99;97351.71;601647;236;63075;-68
2023/09/02 11:55:23;;;;;;;;;;;;;;;24.35;67.00;97351.71;601637;236;65080;-68
2023/09/02 11:57:51;;;;;;;;;;;;;;;24.35;67.35;97349.82;601608;236;62992;-68
2023/09/02 12:00:20;;;;;;;;;;;;;;;24.36;67.37;97331.81;601642;236;63533;-68
2023/09/02 12:02:48;;;;;;;;;;;;;;;24.36;67.48;97337.19;601442;236;65047;-67
2023/09/02 12:05:16;;;;;;;;;;;;;;;24.36;67.53;97342.56;601586;236;65095;-67
2023/09/02 12:07:45;;;;;;;;;;;;;;;24.35;67.71;97336.39;601649;236;63014;-67
2023/09/02 12:10:13;;;;;;;;;;;;;;;24.36;67.41;97337.19;601634;236;62955;-68
2023/09/02 12:12:42;;;;;;;;;;;;;;;24.36;67.04;97337.19;601658;236;64958;-68
2023/09/02 12:15:13;;;;;;;;;;;;;;;24.36;67.03;97337.19;600884;236;65006;-67
2023/09/02 12:17:41;;;;;;;;;;;;;;;24.36;67.02;97331.81;599047;237;62781;-67
2023/09/02 12:20:11;;;;;;;;;;;;;;;24.36;67.15;97332.64;599031;237;62778;-67
2023/09/02 12:22:39;;;;;;;;;;;;;;;24.36;66.48;97340.70;598981;237;62985;-68
2023/09/02 12:25:13;;;;;;;;;;;;;;;24.35;63.79;97333.70;599041;237;62953;-67
2023/09/02 12:27:41;;;;;;;;;;;;;;;24.37;64.36;97339.60;599042;237;64873;-68
2023/09/02 12:30:09;;;;;;;;;;;;;;;24.38;65.08;97326.97;598981;237;65373;-68
2023/09/02 12:32:36;;;;;;;;;;;;;;;24.39;66.73;97328.59;599035;237;64850;-68
2023/09/02 12:35:08;;;;;;;;;;;;;;;24.39;67.25;97325.90;598982;237;62764;-68
2023/09/02 12:37:36;;;;;;;;;;;;;;;24.38;66.99;97324.28;598969;237;65310;-68
2023/09/02 12:40:13;;;;;;;;;;;;;;;24.38;66.59;97326.97;599057;237;64567;-68
2023/09/02 12:42:42;;;;;;;;;;;;;;;24.37;67.20;97325.37;598999;237;65099;-68
2023/09/02 12:45:09;;;;;;;;;;;;;;;24.37;67.22;97320.80;599007;237;63032;-68
2023/09/02 12:47:38;;;;;;;;;;;;;;;24.37;67.43;97317.32;598999;237;65575;-68
2023/09/02 12:50:06;;;;;;;;;;;;;;;24.36;66.02;97319.21;599007;237;62686;-68
2023/09/02 12:52:34;;;;;;;;;;;;;;;24.37;66.10;97317.32;598982;237;65229;-68
2023/09/02 12:55:03;;;;;;;;;;;;;;;24.36;65.98;97316.52;599026;237;62842;-68